createdAt,value
2019-05-19T00:01:44.643Z,19.10
2019-05-19T00:04:15.911Z,18.70
2019-05-19T00:06:47.181Z,17.50
2019-05-19T00:09:18.430Z,20.20
2019-05-19T00:11:49.727Z,19.57
2019-05-19T00:14:21.021Z,18.20
2019-05-19T00:16:52.258Z,20.00
2019-05-19T00:19:26.906Z,18.80
2019-05-19T00:21:56.426Z,19.30
2019-05-19T00:24:27.607Z,19.30
2019-05-19T00:26:58.887Z,19.43
2019-05-19T00:29:30.134Z,19.60
2019-05-19T00:32:01.346Z,19.97
2019-05-19T00:34:32.604Z,18.40
2019-05-19T00:37:04.029Z,21.87
2019-05-19T00:39:35.328Z,19.30
2019-05-19T00:42:06.722Z,21.37
2019-05-19T00:44:37.933Z,19.20
2019-05-19T00:47:09.183Z,17.73
2019-05-19T00:49:41.733Z,17.77
2019-05-19T00:52:13.132Z,17.47
2019-05-19T00:54:44.368Z,19.53
2019-05-19T00:57:16.122Z,18.53
2019-05-19T00:59:48.312Z,18.27
2019-05-19T01:02:19.618Z,20.03
2019-05-19T01:04:50.873Z,19.67
2019-05-19T01:07:22.147Z,21.33
2019-05-19T01:09:53.490Z,20.13
2019-05-19T01:12:24.747Z,18.70
2019-05-19T01:14:55.995Z,20.43
2019-05-19T01:17:27.280Z,23.00
2019-05-19T01:19:58.487Z,23.90
2019-05-19T01:22:30.224Z,22.53
2019-05-19T01:25:01.408Z,23.50
2019-05-19T01:27:32.663Z,23.30
2019-05-19T01:30:03.994Z,23.70
2019-05-19T01:32:35.273Z,24.73
2019-05-19T01:35:06.549Z,25.10
2019-05-19T01:37:37.762Z,25.50
2019-05-19T01:40:10.647Z,26.50
2019-05-19T01:42:41.919Z,24.33
2019-05-19T01:45:13.983Z,25.70
2019-05-19T01:47:45.249Z,24.80
2019-05-19T01:50:18.418Z,27.03
2019-05-19T01:52:50.167Z,28.23
2019-05-19T01:55:21.433Z,29.67
2019-05-19T01:57:52.692Z,26.60
2019-05-19T02:00:24.217Z,29.37
2019-05-19T02:02:55.444Z,29.23
2019-05-19T02:05:26.707Z,28.87
2019-05-19T02:07:57.941Z,27.00
2019-05-19T02:10:25.267Z,28.53
2019-05-19T02:12:56.481Z,29.23
2019-05-19T02:15:27.787Z,28.67
2019-05-19T02:17:58.957Z,28.13
2019-05-19T02:20:33.367Z,27.53
2019-05-19T02:23:03.127Z,29.23
2019-05-19T02:25:34.423Z,27.67
2019-05-19T02:28:05.672Z,32.07
2019-05-19T02:30:37.046Z,27.60
2019-05-19T02:33:08.173Z,30.50
2019-05-19T02:35:39.377Z,30.80
2019-05-19T02:38:10.622Z,31.20
2019-05-19T02:40:43.779Z,29.27
2019-05-19T02:43:16.326Z,31.27
2019-05-19T02:45:50.753Z,30.53
2019-05-19T02:48:24.008Z,31.80
2019-05-19T02:50:58.637Z,30.60
2019-05-19T02:53:31.565Z,31.30
2019-05-19T02:56:04.889Z,29.73
2019-05-19T02:58:37.129Z,31.00
2019-05-19T03:01:08.398Z,32.70
2019-05-19T03:03:39.654Z,34.53
2019-05-19T03:06:10.816Z,33.97
2019-05-19T03:08:42.083Z,31.43
2019-05-19T03:11:13.315Z,35.03
2019-05-19T03:13:44.599Z,31.43
2019-05-19T03:16:15.843Z,34.50
2019-05-19T03:18:47.061Z,34.40
2019-05-19T03:21:18.324Z,40.13
2019-05-19T03:23:49.524Z,36.13
2019-05-19T03:26:20.771Z,37.10
2019-05-19T03:28:52.029Z,35.50
2019-05-19T03:31:33.289Z,35.43
2019-05-19T03:34:04.642Z,37.47
2019-05-19T03:36:35.844Z,35.70
2019-05-19T03:39:08.578Z,36.73
2019-05-19T03:41:39.722Z,35.80
2019-05-19T03:44:10.963Z,36.80
2019-05-19T03:46:42.192Z,37.20
2019-05-19T03:49:13.372Z,38.93
2019-05-19T03:51:44.759Z,38.50
2019-05-19T03:54:16.031Z,39.53
2019-05-19T03:56:47.271Z,39.23
2019-05-19T03:59:18.528Z,41.67
2019-05-19T04:01:49.763Z,38.63
2019-05-19T04:04:20.944Z,39.60
2019-05-19T04:06:52.159Z,39.57
2019-05-19T04:09:23.452Z,41.03
2019-05-19T04:11:54.711Z,44.30
2019-05-19T04:14:26.006Z,41.20
2019-05-19T04:16:57.314Z,39.27
2019-05-19T04:19:28.530Z,39.63
2019-05-19T04:21:59.786Z,39.03
2019-05-19T04:24:31.034Z,37.03
2019-05-19T04:27:02.190Z,37.17
2019-05-19T04:29:33.382Z,39.00
2019-05-19T04:32:04.424Z,39.43
2019-05-19T04:34:35.766Z,39.07
2019-05-19T04:37:06.978Z,39.83
2019-05-19T04:39:38.170Z,38.40
2019-05-19T04:42:09.456Z,39.93
2019-05-19T04:44:40.605Z,36.33
2019-05-19T04:47:11.897Z,37.70
2019-05-19T04:49:43.158Z,38.60
2019-05-19T04:52:14.442Z,35.80
2019-05-19T04:54:45.697Z,37.67
2019-05-19T04:57:16.958Z,35.80
2019-05-19T04:59:48.125Z,36.87
2019-05-19T05:02:19.384Z,35.00
2019-05-19T05:04:50.707Z,35.20
2019-05-19T05:07:22.036Z,31.17
2019-05-19T05:09:53.276Z,34.73
2019-05-19T05:12:24.535Z,32.50
2019-05-19T05:14:55.801Z,33.67
2019-05-19T05:17:27.054Z,33.13
2019-05-19T05:19:58.296Z,32.70
2019-05-19T05:22:29.571Z,31.40
2019-05-19T05:25:00.783Z,32.27
2019-05-19T05:27:31.980Z,33.20
2019-05-19T05:30:03.259Z,32.40
2019-05-19T05:32:34.498Z,32.33
2019-05-19T05:35:05.980Z,30.53
2019-05-19T05:37:37.230Z,29.93
2019-05-19T05:40:09.331Z,29.30
2019-05-19T05:42:40.573Z,29.10
2019-05-19T05:45:12.011Z,27.40
2019-05-19T05:47:43.249Z,27.70
2019-05-19T05:50:14.678Z,25.77
2019-05-19T05:52:45.914Z,24.53
2019-05-19T05:55:22.332Z,24.43
2019-05-19T05:57:53.625Z,24.43
2019-05-19T06:00:25.038Z,22.40
2019-05-19T06:02:56.371Z,21.30
2019-05-19T06:05:28.899Z,22.30
2019-05-19T06:08:02.085Z,20.00
2019-05-19T06:10:36.072Z,20.33
2019-05-19T06:13:07.313Z,22.53
2019-05-19T06:15:38.670Z,20.60
2019-05-19T06:18:09.955Z,19.40
2019-05-19T06:20:41.175Z,19.83
2019-05-19T06:23:12.439Z,19.83
2019-05-19T06:25:43.687Z,19.30
2019-05-19T06:28:14.938Z,17.80
2019-05-19T06:30:46.491Z,19.30
2019-05-19T06:33:17.832Z,19.60
2019-05-19T06:35:49.088Z,19.27
2019-05-19T06:38:20.321Z,19.23
2019-05-19T06:40:51.562Z,20.07
2019-05-19T06:43:22.840Z,19.30
2019-05-19T06:45:54.131Z,20.10
2019-05-19T06:48:25.282Z,20.40
2019-05-19T06:50:56.573Z,18.23
2019-05-19T06:53:27.763Z,19.70
2019-05-19T06:55:59.031Z,19.13
2019-05-19T06:58:30.274Z,18.47
2019-05-19T07:01:01.522Z,18.67
2019-05-19T07:03:32.784Z,16.40
2019-05-19T07:06:04.177Z,17.77
2019-05-19T07:08:35.376Z,18.83
2019-05-19T07:11:06.632Z,18.60
2019-05-19T07:13:37.812Z,20.13
2019-05-19T07:16:09.081Z,18.70
2019-05-19T07:18:40.367Z,18.80
2019-05-19T07:21:11.740Z,20.40
2019-05-19T07:23:42.997Z,17.40
2019-05-19T07:26:14.258Z,19.00
2019-05-19T07:28:45.480Z,16.33
2019-05-19T07:31:16.754Z,18.53
2019-05-19T07:33:48.024Z,16.57
2019-05-19T07:36:19.267Z,17.30
2019-05-19T07:38:50.453Z,15.50
2019-05-19T07:41:21.746Z,15.63
2019-05-19T07:43:52.959Z,15.40
2019-05-19T07:46:24.195Z,15.00
2019-05-19T07:48:55.401Z,16.10
2019-05-19T07:51:27.967Z,14.10
2019-05-19T07:53:59.253Z,16.33
2019-05-19T07:56:30.548Z,14.13
2019-05-19T07:59:01.828Z,12.97
2019-05-19T08:01:33.228Z,15.07
2019-05-19T08:04:04.491Z,13.97
2019-05-19T08:06:38.252Z,13.47
2019-05-19T08:09:09.521Z,13.97
2019-05-19T08:11:40.771Z,12.90
2019-05-19T08:14:12.037Z,13.07
2019-05-19T08:16:43.266Z,12.13
2019-05-19T08:19:14.552Z,12.70
2019-05-19T08:21:55.984Z,12.10
2019-05-19T08:24:24.553Z,12.07
2019-05-19T08:26:55.810Z,10.77
2019-05-19T08:29:30.407Z,10.10
2019-05-19T08:32:02.859Z,9.50
2019-05-19T08:34:34.117Z,10.33
2019-05-19T08:37:05.363Z,11.33
2019-05-19T08:39:36.626Z,8.80
2019-05-19T08:42:07.840Z,10.90
2019-05-19T08:44:39.243Z,10.30
2019-05-19T08:47:10.490Z,10.17
2019-05-19T08:49:41.786Z,8.60
2019-05-19T08:52:13.038Z,9.03
2019-05-19T08:54:44.402Z,11.00
2019-05-19T08:57:15.719Z,8.33
2019-05-19T08:59:46.921Z,8.93
2019-05-19T09:02:18.153Z,9.70
2019-05-19T09:04:49.397Z,8.97
2019-05-19T09:07:20.551Z,8.67
2019-05-19T09:09:51.787Z,9.10
2019-05-19T09:12:23.014Z,7.57
2019-05-19T09:14:54.282Z,8.10
2019-05-19T09:17:25.481Z,7.13
2019-05-19T09:19:56.825Z,8.30
2019-05-19T09:22:28.059Z,7.20
2019-05-19T09:24:59.296Z,6.90
2019-05-19T09:27:30.499Z,7.33
2019-05-19T09:30:01.816Z,10.03
2019-05-19T09:32:33.096Z,6.50
2019-05-19T09:35:06.711Z,5.83
2019-05-19T09:37:37.976Z,6.50
2019-05-19T09:40:09.945Z,6.20
2019-05-19T09:42:41.184Z,5.93
2019-05-19T09:45:12.903Z,6.60
2019-05-19T09:47:46.458Z,6.00
2019-05-19T09:50:25.035Z,6.83
2019-05-19T09:52:57.578Z,6.73
2019-05-19T09:55:31.345Z,6.00
2019-05-19T09:58:02.590Z,6.60
2019-05-19T10:00:33.830Z,6.17
2019-05-19T10:03:05.161Z,6.40
2019-05-19T10:05:36.311Z,6.23
2019-05-19T10:08:07.573Z,7.00
2019-05-19T10:11:28.285Z,6.87
2019-05-19T10:13:59.392Z,6.57
2019-05-19T10:16:30.675Z,7.40
2019-05-19T10:19:01.874Z,7.20
2019-05-19T10:21:33.121Z,7.47
2019-05-19T10:24:04.375Z,7.43
2019-05-19T10:26:35.613Z,6.40
2019-05-19T10:29:06.918Z,6.70
2019-05-19T10:31:38.299Z,6.30
2019-05-19T10:34:09.537Z,5.40
2019-05-19T10:36:40.698Z,7.40
2019-05-19T10:39:11.935Z,5.40
2019-05-19T10:41:43.159Z,4.93
2019-05-19T10:44:14.461Z,5.13
2019-05-19T10:46:45.702Z,5.60
2019-05-19T10:49:17.002Z,5.10
2019-05-19T10:51:48.209Z,5.17
2019-05-19T10:54:19.526Z,5.47
2019-05-19T10:56:50.754Z,5.50
2019-05-19T10:59:21.946Z,5.13
2019-05-19T11:01:53.191Z,5.80
2019-05-19T11:04:24.454Z,4.77
2019-05-19T11:06:55.709Z,5.20
2019-05-19T11:09:26.887Z,4.10
2019-05-19T11:12:01.037Z,4.73
2019-05-19T11:14:32.287Z,5.00
2019-05-19T11:17:03.625Z,5.07
2019-05-19T11:19:34.865Z,5.50
2019-05-19T11:22:06.097Z,4.20
2019-05-19T11:24:37.426Z,4.80
2019-05-19T11:27:10.127Z,5.40
2019-05-19T11:29:41.425Z,5.83
2019-05-19T11:32:12.590Z,5.53
2019-05-19T11:34:44.321Z,5.13
2019-05-19T11:37:15.686Z,5.23
2019-05-19T11:39:49.998Z,5.60
2019-05-19T11:42:23.950Z,5.30
2019-05-19T11:44:56.816Z,5.13
2019-05-19T11:47:30.987Z,4.80
2019-05-19T11:50:02.355Z,13.20
2019-05-19T11:52:33.544Z,5.17
2019-05-19T11:55:04.734Z,5.00
2019-05-19T11:57:36.020Z,5.10
2019-05-19T12:00:08.158Z,6.40
2019-05-19T12:02:39.513Z,6.00
2019-05-19T12:05:10.980Z,12.27
2019-05-19T12:07:43.493Z,7.07
2019-05-19T12:10:15.315Z,4.50
2019-05-19T12:12:46.771Z,5.77
2019-05-19T12:15:18.233Z,5.90
2019-05-19T12:17:49.449Z,5.67
2019-05-19T12:20:20.836Z,4.50
2019-05-19T12:22:52.085Z,5.17
2019-05-19T12:25:23.328Z,5.43
2019-05-19T12:27:54.577Z,4.10
2019-05-19T12:30:25.914Z,5.20
2019-05-19T12:32:59.282Z,4.70
2019-05-19T12:35:30.274Z,4.17
2019-05-19T12:38:01.569Z,4.50
2019-05-19T12:40:32.997Z,4.73
2019-05-19T12:43:04.274Z,4.70
2019-05-19T12:45:35.569Z,4.40
2019-05-19T12:48:06.937Z,5.53
2019-05-19T12:50:38.224Z,5.30
2019-05-19T12:53:09.506Z,5.20
2019-05-19T12:55:40.792Z,4.90
2019-05-19T12:58:12.045Z,5.20
2019-05-19T13:00:43.517Z,4.90
2019-05-19T13:03:14.659Z,4.90
2019-05-19T13:05:45.936Z,4.63
2019-05-19T13:08:17.156Z,5.07
2019-05-19T13:10:48.438Z,4.83
2019-05-19T13:13:19.650Z,3.90
2019-05-19T13:15:50.948Z,5.00
2019-05-19T13:18:29.516Z,4.60
2019-05-19T13:21:01.279Z,4.17
2019-05-19T13:23:32.595Z,3.47
2019-05-19T13:26:04.111Z,4.30
2019-05-19T13:28:35.435Z,4.67
2019-05-19T13:31:09.149Z,5.07
2019-05-19T13:33:44.604Z,4.87
2019-05-19T13:36:15.889Z,5.07
2019-05-19T13:41:16.738Z,5.17
2019-05-19T13:43:47.980Z,6.07
2019-05-19T13:46:19.228Z,6.43
2019-05-19T13:48:50.508Z,5.50
2019-05-19T13:51:21.695Z,6.07
2019-05-19T13:53:53.003Z,5.73
2019-05-19T13:56:24.229Z,6.80
2019-05-19T13:58:55.677Z,6.63
2019-05-19T14:01:28.952Z,5.30
2019-05-19T14:03:59.870Z,4.67
2019-05-19T14:06:31.186Z,4.20
2019-05-19T14:09:02.477Z,6.30
2019-05-19T14:11:36.340Z,4.10
2019-05-19T14:14:07.647Z,3.63
2019-05-19T14:16:38.916Z,3.60
2019-05-19T14:19:10.199Z,3.57
2019-05-19T14:21:41.512Z,3.50
2019-05-19T14:24:12.747Z,3.93
2019-05-19T14:26:43.918Z,3.23
2019-05-19T14:29:15.178Z,3.60
2019-05-19T14:31:46.392Z,3.43
2019-05-19T14:34:22.070Z,3.40
2019-05-19T14:36:53.275Z,3.47
2019-05-19T14:39:24.622Z,3.43
2019-05-19T14:42:00.016Z,2.57
2019-05-19T14:44:31.333Z,3.67
2019-05-19T14:47:02.581Z,3.70
2019-05-19T14:49:36.156Z,3.33
2019-05-19T14:52:07.550Z,3.53
2019-05-19T14:54:39.033Z,3.30
2019-05-19T14:57:10.305Z,2.80
2019-05-19T14:59:43.969Z,3.47
2019-05-19T15:04:51.255Z,2.83
2019-05-19T15:07:25.105Z,3.10
2019-05-19T15:09:58.035Z,3.17
2019-05-19T15:12:29.492Z,3.17
2019-05-19T15:15:02.635Z,3.40
2019-05-19T15:17:33.874Z,4.03
2019-05-19T15:20:07.036Z,2.80
2019-05-19T15:22:43.992Z,2.70
2019-05-19T15:25:19.947Z,2.60
2019-05-19T15:28:04.555Z,2.97
2019-05-19T15:30:35.163Z,3.50
2019-05-19T15:33:06.474Z,2.60
2019-05-19T15:35:37.726Z,2.00
2019-05-19T15:38:09.198Z,2.47
2019-05-19T15:40:47.932Z,3.07
2019-05-19T15:43:19.204Z,2.23
2019-05-19T15:45:50.575Z,2.27
2019-05-19T15:48:21.904Z,2.13
2019-05-19T15:50:53.195Z,2.33
2019-05-19T15:53:24.515Z,2.67
2019-05-19T15:55:55.849Z,2.47
2019-05-19T15:58:32.473Z,2.30
2019-05-19T16:01:04.950Z,2.57
2019-05-19T16:03:42.371Z,2.57
2019-05-19T16:06:13.710Z,2.50
2019-05-19T16:08:45.048Z,2.47
2019-05-19T16:11:16.451Z,3.10
2019-05-19T16:13:47.733Z,2.80
2019-05-19T16:16:20.402Z,2.40
2019-05-19T16:18:53.357Z,2.53
2019-05-19T16:21:24.866Z,2.20
2019-05-19T16:23:56.135Z,2.10
2019-05-19T16:26:46.449Z,2.53
2019-05-19T16:29:17.812Z,2.07
2019-05-19T16:31:49.297Z,2.00
2019-05-19T16:34:20.535Z,2.40
2019-05-19T16:36:51.876Z,2.30
2019-05-19T16:39:23.165Z,2.03
2019-05-19T16:41:54.443Z,2.10
2019-05-19T16:44:25.599Z,2.20
2019-05-19T16:46:57.208Z,1.70
2019-05-19T16:49:28.505Z,1.90
2019-05-19T16:52:02.943Z,2.33
2019-05-19T16:54:37.623Z,1.63
2019-05-19T16:57:10.325Z,2.77
2019-05-19T16:59:41.527Z,1.80
2019-05-19T17:02:12.820Z,1.93
2019-05-19T17:04:44.455Z,1.97
2019-05-19T17:07:16.108Z,2.30
2019-05-19T17:09:47.387Z,2.13
2019-05-19T17:12:18.769Z,2.30
2019-05-19T17:14:50.023Z,2.00
2019-05-19T17:17:21.267Z,1.87
2019-05-19T17:19:52.625Z,1.80
2019-05-19T17:22:23.885Z,1.83
2019-05-19T17:24:55.202Z,2.20
2019-05-19T17:27:27.418Z,2.13
2019-05-19T17:29:58.711Z,2.03
2019-05-19T17:32:30.160Z,2.23
2019-05-19T17:35:01.535Z,2.23
2019-05-19T17:37:32.810Z,2.27
2019-05-19T17:40:04.209Z,1.80
2019-05-19T17:42:37.301Z,2.13
2019-05-19T17:45:13.788Z,2.07
2019-05-19T17:47:45.397Z,1.90
2019-05-19T17:50:18.817Z,1.60
2019-05-19T17:52:50.126Z,2.47
2019-05-19T17:55:22.028Z,2.90
2019-05-19T17:57:53.943Z,4.67
2019-05-19T18:00:37.456Z,2.97
2019-05-19T18:03:09.196Z,3.17
2019-05-19T18:05:40.454Z,3.43
2019-05-19T18:08:12.123Z,3.30
2019-05-19T18:10:43.671Z,4.50
2019-05-19T18:13:15.025Z,4.20
2019-05-19T18:15:46.553Z,3.87
2019-05-19T18:18:17.930Z,4.90
2019-05-19T18:20:49.148Z,4.20
2019-05-19T18:23:20.608Z,4.43
2019-05-19T18:25:52.281Z,3.50
2019-05-19T18:28:23.767Z,4.33
2019-05-19T18:30:55.136Z,2.90
2019-05-19T18:33:29.137Z,3.07
2019-05-19T18:36:00.598Z,3.20
2019-05-19T18:38:39.537Z,3.13
2019-05-19T18:41:25.189Z,3.47
2019-05-19T18:44:16.383Z,2.60
2019-05-19T18:46:57.776Z,3.20
2019-05-19T18:49:42.903Z,3.30
2019-05-19T18:52:14.358Z,3.00
2019-05-19T18:54:45.715Z,3.10
2019-05-19T18:57:17.019Z,2.67
2019-05-19T18:59:52.283Z,3.00
2019-05-19T19:02:23.762Z,3.00
2019-05-19T19:04:55.163Z,2.70
2019-05-19T19:07:45.281Z,2.77
2019-05-19T19:10:16.627Z,3.40
2019-05-19T19:12:50.709Z,2.80
2019-05-19T19:15:22.131Z,2.67
2019-05-19T19:17:53.372Z,3.10
2019-05-19T19:20:28.764Z,3.00
2019-05-19T19:23:00.046Z,2.80
2019-05-19T19:25:31.545Z,3.00
2019-05-19T19:28:02.794Z,3.23
2019-05-19T19:30:34.047Z,3.20
2019-05-19T19:33:05.286Z,4.07
2019-05-19T19:35:39.119Z,4.93
2019-05-19T19:38:09.548Z,5.07
2019-05-19T19:40:40.780Z,4.27
2019-05-19T19:43:12.124Z,3.03
2019-05-19T19:45:43.579Z,3.53
2019-05-19T19:48:14.922Z,3.37
2019-05-19T19:50:48.134Z,4.10
2019-05-19T19:53:19.431Z,3.60
2019-05-19T19:55:50.621Z,4.83
2019-05-19T19:58:21.852Z,4.30
2019-05-19T20:00:53.194Z,5.63
2019-05-19T20:03:24.690Z,4.83
2019-05-19T20:05:56.047Z,4.50
2019-05-19T20:08:27.298Z,4.20
2019-05-19T20:10:58.583Z,3.90
2019-05-19T20:13:29.745Z,4.27
2019-05-19T20:16:00.990Z,4.67
2019-05-19T20:18:32.310Z,6.00
2019-05-19T20:21:11.220Z,5.03
2019-05-19T20:23:42.460Z,4.90
2019-05-19T20:26:13.735Z,5.00
2019-05-19T20:28:45.021Z,4.63
2019-05-19T20:31:16.190Z,4.93
2019-05-19T20:33:47.530Z,5.33
2019-05-19T20:36:18.760Z,5.30
2019-05-19T20:38:50.257Z,5.57
2019-05-19T20:41:21.547Z,5.30
2019-05-19T20:43:54.283Z,5.57
2019-05-19T20:46:25.633Z,5.43
2019-05-19T20:48:56.915Z,6.20
2019-05-19T20:51:28.302Z,5.57
2019-05-19T20:53:59.563Z,6.10
2019-05-19T20:56:30.713Z,6.03
2019-05-19T20:59:01.995Z,6.50
2019-05-19T21:01:33.875Z,6.23
2019-05-19T21:04:05.240Z,6.50
2019-05-19T21:06:36.834Z,7.60
2019-05-19T21:09:11.528Z,7.97
2019-05-19T21:11:42.804Z,6.50
2019-05-19T21:14:15.668Z,5.70
2019-05-19T21:16:46.894Z,6.90
2019-05-19T21:19:18.196Z,7.30
2019-05-19T21:21:49.446Z,7.23
2019-05-19T21:24:20.751Z,7.00
2019-05-19T21:26:53.473Z,9.10
2019-05-19T21:29:24.887Z,8.50
2019-05-19T21:31:56.177Z,7.37
2019-05-19T21:34:27.447Z,8.40
2019-05-19T21:36:58.665Z,7.97
2019-05-19T21:39:31.359Z,7.80
2019-05-19T21:42:02.737Z,8.23
2019-05-19T21:44:34.006Z,7.57
2019-05-19T21:47:05.250Z,7.80
2019-05-19T21:49:36.530Z,8.00
2019-05-19T21:52:07.834Z,7.37
2019-05-19T21:54:39.089Z,8.80
2019-05-19T21:57:13.314Z,8.30
2019-05-19T21:59:58.106Z,9.20
2019-05-19T22:02:32.409Z,9.27
2019-05-19T22:05:03.787Z,8.70
2019-05-19T22:08:00.861Z,9.40
2019-05-19T22:10:32.189Z,10.43
2019-05-19T22:13:03.380Z,10.13
2019-05-19T22:15:34.702Z,10.77
2019-05-19T22:18:06.013Z,9.40
2019-05-19T22:20:37.238Z,10.33
2019-05-19T22:23:08.467Z,10.03
2019-05-19T22:25:39.746Z,10.33
2019-05-19T22:28:10.994Z,11.00
2019-05-19T22:30:42.263Z,10.73
2019-05-19T22:33:14.224Z,11.07
2019-05-19T22:35:46.117Z,11.10
2019-05-19T22:38:17.478Z,12.50
2019-05-19T22:40:48.859Z,12.23
2019-05-19T22:43:20.076Z,11.87
2019-05-19T22:45:51.247Z,12.10
2019-05-19T22:48:22.767Z,11.90
2019-05-19T22:50:54.027Z,12.00
2019-05-19T22:53:25.330Z,11.83
2019-05-19T22:55:56.496Z,10.97
2019-05-19T22:58:27.896Z,12.00
2019-05-19T23:00:59.800Z,11.43
2019-05-19T23:03:31.233Z,11.90
2019-05-19T23:06:02.492Z,13.07
2019-05-19T23:08:33.786Z,12.63
2019-05-19T23:11:08.215Z,13.37
2019-05-19T23:13:39.486Z,11.80
2019-05-19T23:16:10.888Z,12.47
2019-05-19T23:18:42.278Z,12.37
2019-05-19T23:21:13.542Z,14.17
2019-05-19T23:23:44.757Z,14.20
2019-05-19T23:26:16.081Z,14.57
2019-05-19T23:28:47.346Z,13.90
2019-05-19T23:31:18.604Z,14.37
2019-05-19T23:33:49.861Z,14.80
2019-05-19T23:36:21.198Z,17.13
2019-05-19T23:38:52.479Z,17.00
2019-05-19T23:41:23.724Z,16.90
2019-05-19T23:43:54.965Z,18.97
2019-05-19T23:46:26.355Z,18.27
2019-05-19T23:48:57.620Z,18.20
2019-05-19T23:51:28.899Z,20.43
2019-05-19T23:54:00.150Z,21.27
2019-05-19T23:56:31.484Z,19.57
2019-05-19T23:59:02.865Z,19.67
